Riga, Latvia

9:06 AM EEST on April 28, 2015 (GMT +0300)
Atgāzene, Rīga | | Change Station
CLOSE
Current Station
Personal Weather Station
Location: Rīga, RīGAS PILSēTA
Elevation: 43 ft
Nearby Weather Stations

Elev 43 ft 56.92 °N, 24.08 °E | Updated 9 seconds ago

Light Rain
Light Rain
52.9 °F
Feels Like 52.9 °F
N
2.0
Wind Variable Wind from WNW
Gusts 5.0 mph

Today
High -- | Low -- °F
--% Chance of Precip.
Yesterday
High -- | Low -- °F
Precip. -- in
5:44 AM 8:59 PM
Waxing Gibbous, 71% visible
Pressure 29.65 in
Visibility 5.0 miles
Clouds Overcast 300 ft
Dew Point 51 °F
Humidity 92%
Rainfall 0.00 in
Snow Depth Not available.
UV 0.0 out of 12
Pollen Not available.
Air Quality Not available.
Flu Activity Not available.
METAR EVRA 280550Z 36007KT 8000 -RA OVC003 10/10 Q1004 NOSIG

More Conditions Fewer Conditions

Pressure 29.65 in
Visibility 5.0 miles
Clouds Overcast 300 ft
Dew Point 51 °F
Humidity 92%
Rainfall 0.00 in
Snow Depth Not available.
UV 0.0 out of 12
Pollen Not available.
Air Quality Not available.
Flu Activity Not available.
METAR EVRA 280550Z 36007KT 8000 -RA OVC003 10/10 Q1004 NOSIG

More Conditions Fewer Conditions

10-Day Weather Forecast

Almanac

Astronomy

Apr. 28, 2015 Rise Set
Actual Time
Civil Twilight
Nautical Twilight
Astronomical Twilight
Moon
Length of Visible Light
Length of Day
Tomorrow will be .
, % of the Moon is Illuminated

Today's Extremes

Country Highs Country Lows

Community

WunderPhotos

Upload Photos

1,817,589 photos uploaded!

WunderBlogs® & News

Nearby

Air Quality

  Air Quality AQ Index Pollutant
Not available.

Snow Depth

Station Depth Elevation

Earthquake Activity

City Distance Mag. Time & Date
Minimum magnitude displayed is 2.5.

Coastal Water Temperatures

Place Temperature

Stations

Nearby Weather Stations

Station Location Temp. Windchill Dew Point Humidity Wind Precip. Elev Updated Type